createdAt,value
2019-05-03T00:01:42.676Z,31.90
2019-05-03T00:04:17.171Z,29.43
2019-05-03T00:06:48.160Z,29.93
2019-05-03T00:09:19.586Z,34.87
2019-05-03T00:11:52.697Z,30.97
2019-05-03T00:14:23.934Z,30.80
2019-05-03T00:16:57.855Z,34.50
2019-05-03T00:19:29.042Z,32.17
2019-05-03T00:22:01.944Z,31.90
2019-05-03T00:24:33.158Z,34.03
2019-05-03T00:27:26.989Z,33.83
2019-05-03T00:30:09.123Z,34.83
2019-05-03T00:32:40.417Z,37.43
2019-05-03T00:35:38.425Z,37.77
2019-05-03T00:38:12.294Z,37.03
2019-05-03T00:40:43.532Z,37.77
2019-05-03T00:43:14.548Z,35.67
2019-05-03T00:45:44.594Z,35.83
2019-05-03T00:48:15.938Z,37.97
2019-05-03T00:50:46.904Z,35.57
2019-05-03T00:53:18.240Z,37.03
2019-05-03T00:55:49.252Z,38.77
2019-05-03T00:58:22.242Z,34.93
2019-05-03T01:00:53.236Z,34.70
2019-05-03T01:03:24.404Z,34.63
2019-05-03T01:05:55.459Z,38.03
2019-05-03T01:08:26.535Z,35.90
2019-05-03T01:10:57.610Z,35.70
2019-05-03T01:13:28.826Z,39.53
2019-05-03T01:16:02.746Z,44.07
2019-05-03T01:18:35.429Z,51.07
2019-05-03T01:21:06.470Z,61.57
2019-05-03T01:23:36.666Z,59.47
2019-05-03T01:26:08.085Z,58.20
2019-05-03T01:28:39.244Z,64.57
2019-05-03T01:31:11.960Z,57.37
2019-05-03T01:33:43.051Z,62.03
2019-05-03T01:36:14.215Z,65.70
2019-05-03T01:38:45.206Z,71.20
2019-05-03T01:41:16.583Z,73.93
2019-05-03T01:43:47.734Z,76.87
2019-05-03T01:46:18.912Z,79.93
2019-05-03T01:48:57.391Z,78.27
2019-05-03T01:51:33.023Z,78.03
2019-05-03T01:54:03.902Z,65.63
2019-05-03T01:56:34.162Z,90.80
2019-05-03T01:59:05.428Z,71.33
2019-05-03T02:01:42.152Z,72.43
2019-05-03T02:04:17.955Z,78.47
2019-05-03T02:06:48.976Z,71.37
2019-05-03T02:09:21.670Z,83.47
2019-05-03T02:11:52.817Z,77.67
2019-05-03T02:14:24.101Z,79.40
2019-05-03T02:16:55.355Z,86.43
2019-05-03T02:19:26.444Z,77.33
2019-05-03T02:21:57.610Z,81.97
2019-05-03T02:24:28.785Z,92.60
2019-05-03T02:26:59.741Z,89.17
2019-05-03T02:29:32.592Z,82.70
2019-05-03T02:32:04.954Z,103.97
2019-05-03T02:34:35.084Z,94.90
2019-05-03T02:37:06.310Z,87.73
2019-05-03T02:39:37.272Z,88.33
2019-05-03T02:42:11.709Z,99.47
2019-05-03T02:44:41.372Z,88.73
2019-05-03T02:47:15.884Z,93.03
2019-05-03T02:49:48.619Z,102.40
2019-05-03T02:52:36.743Z,111.67
2019-05-03T02:55:09.361Z,99.00
2019-05-03T02:57:40.698Z,101.03
2019-05-03T03:00:16.362Z,116.17
2019-05-03T03:02:46.629Z,96.60
2019-05-03T03:05:17.717Z,104.53
2019-05-03T03:07:51.883Z,109.60
2019-05-03T03:10:22.919Z,108.40
2019-05-03T03:12:56.182Z,88.63
2019-05-03T03:15:28.793Z,91.70
2019-05-03T03:18:01.215Z,95.90
2019-05-03T03:20:35.751Z,98.37
2019-05-03T03:23:09.719Z,89.73
2019-05-03T03:25:46.208Z,88.47
2019-05-03T03:28:20.696Z,87.60
2019-05-03T03:31:18.003Z,81.37
2019-05-03T03:33:48.870Z,88.23
2019-05-03T03:36:50.313Z,108.27
2019-05-03T03:38:55.386Z,93.23
2019-05-03T03:41:26.889Z,93.40
2019-05-03T03:43:58.887Z,103.80
2019-05-03T03:46:32.217Z,92.43
2019-05-03T03:49:07.073Z,104.77
2019-05-03T03:51:39.458Z,101.43
2019-05-03T03:54:15.506Z,105.80
2019-05-03T03:57:02.705Z,103.13
2019-05-03T03:59:26.558Z,84.17
2019-05-03T04:01:56.973Z,91.57
2019-05-03T04:04:28.875Z,83.37
2019-05-03T04:07:01.390Z,73.00
2019-05-03T04:09:36.062Z,72.93
2019-05-03T04:12:06.411Z,71.13
2019-05-03T04:14:45.359Z,85.07
2019-05-03T04:17:20.900Z,71.37
2019-05-03T04:19:57.052Z,78.60
2019-05-03T04:22:28.121Z,60.83
2019-05-03T04:24:59.653Z,71.60
2019-05-03T04:27:32.392Z,62.13
2019-05-03T04:30:06.366Z,65.17
2019-05-03T04:33:06.210Z,58.27
2019-05-03T04:35:46.312Z,56.07
2019-05-03T04:38:16.603Z,61.33
2019-05-03T04:40:47.795Z,57.73
2019-05-03T04:43:19.029Z,57.30
2019-05-03T04:46:06.600Z,58.57
2019-05-03T04:48:37.006Z,64.20
2019-05-03T04:51:08.335Z,54.43
2019-05-03T04:53:40.924Z,51.83
2019-05-03T04:56:11.038Z,54.17
2019-05-03T04:58:42.222Z,52.87
2019-05-03T05:01:15.832Z,53.13
2019-05-03T05:03:46.350Z,56.63
2019-05-03T05:06:17.620Z,53.80
2019-05-03T05:08:48.737Z,48.40
2019-05-03T05:11:19.702Z,46.90
2019-05-03T05:13:50.860Z,46.27
2019-05-03T05:16:21.943Z,37.17
2019-05-03T05:19:12.008Z,42.10
2019-05-03T05:21:52.079Z,36.23
2019-05-03T05:24:25.395Z,36.17
2019-05-03T05:27:14.622Z,38.37
2019-05-03T05:29:45.922Z,30.57
2019-05-03T05:32:17.292Z,33.23
2019-05-03T05:34:48.517Z,34.97
2019-05-03T05:37:19.442Z,30.37
2019-05-03T05:39:50.573Z,31.40
2019-05-03T05:42:21.610Z,32.93
2019-05-03T05:44:51.768Z,35.60
2019-05-03T05:47:25.426Z,32.87
2019-05-03T05:49:58.159Z,29.57
2019-05-03T05:52:29.352Z,32.47
2019-05-03T05:55:02.038Z,35.30
2019-05-03T05:57:37.455Z,32.87
2019-05-03T06:00:10.259Z,34.60
2019-05-03T06:02:41.549Z,36.17
2019-05-03T06:05:14.699Z,32.83
2019-05-03T06:07:56.014Z,32.67
2019-05-03T06:10:31.553Z,29.77
2019-05-03T06:13:16.376Z,33.40
2019-05-03T06:15:51.963Z,34.70
2019-05-03T06:18:25.177Z,34.30
2019-05-03T06:20:57.754Z,31.33
2019-05-03T06:23:34.738Z,34.20
2019-05-03T06:26:07.438Z,33.23
2019-05-03T06:28:37.618Z,34.17
2019-05-03T06:31:14.876Z,32.30
2019-05-03T06:33:46.075Z,30.87
2019-05-03T06:36:17.422Z,34.40
2019-05-03T06:38:48.334Z,29.77
2019-05-03T06:41:19.637Z,31.90
2019-05-03T06:43:50.647Z,32.90
2019-05-03T06:46:30.278Z,32.60
2019-05-03T06:48:56.263Z,30.70
2019-05-03T06:51:27.469Z,31.27
2019-05-03T06:53:58.577Z,37.23
2019-05-03T06:56:29.811Z,46.40
2019-05-03T06:59:01.018Z,43.27
2019-05-03T07:01:34.496Z,51.57
2019-05-03T07:04:15.119Z,54.13
2019-05-03T07:06:46.611Z,46.40
2019-05-03T07:09:22.446Z,46.57
2019-05-03T07:11:55.712Z,44.43
2019-05-03T07:14:26.886Z,44.80
2019-05-03T07:16:57.915Z,45.90
2019-05-03T07:19:28.975Z,41.23
2019-05-03T07:21:59.942Z,46.73
2019-05-03T07:24:31.307Z,19.20
2019-05-03T07:27:02.261Z,12.67
2019-05-03T07:29:33.505Z,11.83
2019-05-03T07:32:05.249Z,11.53
2019-05-03T07:34:36.599Z,12.77
2019-05-03T07:37:07.751Z,9.57
2019-05-03T07:39:39.013Z,7.97
2019-05-03T07:42:10.111Z,8.60
2019-05-03T07:44:40.359Z,7.63
2019-05-03T07:47:11.577Z,12.83
2019-05-03T07:49:44.573Z,8.67
2019-05-03T07:52:15.511Z,8.47
2019-05-03T07:54:46.538Z,11.43
2019-05-03T07:57:25.626Z,8.50
2019-05-03T07:59:56.847Z,8.40
2019-05-03T08:02:28.105Z,8.97
2019-05-03T08:04:59.291Z,8.33
2019-05-03T08:07:30.309Z,6.30
2019-05-03T08:10:01.428Z,6.87
2019-05-03T08:12:32.541Z,7.60
2019-05-03T08:15:05.365Z,7.10
2019-05-03T08:17:35.613Z,6.67
2019-05-03T08:20:07.729Z,6.07
2019-05-03T08:22:38.703Z,9.40
2019-05-03T08:25:10.093Z,6.87
2019-05-03T08:27:47.247Z,9.30
2019-05-03T08:30:20.096Z,8.07
2019-05-03T08:32:54.821Z,6.23
2019-05-03T08:35:35.436Z,6.83
2019-05-03T08:38:06.615Z,6.67
2019-05-03T08:40:39.382Z,8.00
2019-05-03T08:43:10.788Z,8.87
2019-05-03T08:45:41.952Z,6.20
2019-05-03T08:48:15.060Z,7.70
2019-05-03T08:50:45.811Z,5.47
2019-05-03T08:53:17.103Z,6.60
2019-05-03T08:55:48.447Z,5.23
2019-05-03T08:58:19.338Z,6.37
2019-05-03T09:00:49.577Z,6.30
2019-05-03T09:03:24.966Z,6.33
2019-05-03T09:05:56.585Z,7.73
2019-05-03T09:08:27.872Z,5.57
2019-05-03T09:11:00.401Z,5.83
2019-05-03T09:13:34.316Z,6.40
2019-05-03T09:16:05.561Z,6.50
2019-05-03T09:18:36.702Z,5.80
2019-05-03T09:21:07.981Z,7.03
2019-05-03T09:23:39.078Z,7.07
2019-05-03T09:26:10.143Z,8.37
2019-05-03T09:28:41.412Z,6.27
2019-05-03T09:31:12.475Z,7.87
2019-05-03T09:33:44.950Z,6.70
2019-05-03T09:36:15.562Z,6.77
2019-05-03T09:38:46.521Z,7.03
2019-05-03T09:41:17.800Z,6.30
2019-05-03T09:43:48.932Z,8.07
2019-05-03T09:46:19.996Z,6.80
2019-05-03T09:48:51.146Z,6.77
2019-05-03T09:51:22.359Z,5.70
2019-05-03T09:53:55.534Z,5.33
2019-05-03T09:56:54.993Z,6.10
2019-05-03T09:59:17.922Z,5.83
2019-05-03T10:01:49.279Z,4.33
2019-05-03T10:04:20.742Z,5.13
2019-05-03T10:06:52.072Z,6.20
2019-05-03T10:09:25.784Z,5.43
2019-05-03T10:11:55.399Z,5.40
2019-05-03T10:14:26.714Z,3.00
2019-05-03T10:17:02.029Z,2.73
2019-05-03T10:19:39.986Z,1.80
2019-05-03T10:22:07.176Z,5.00
2019-05-03T10:24:38.437Z,3.00
2019-05-03T10:27:09.500Z,3.13
2019-05-03T10:29:40.718Z,3.53
2019-05-03T10:32:16.156Z,4.40
2019-05-03T10:35:01.322Z,2.13
2019-05-03T10:37:35.900Z,2.53
2019-05-03T10:40:08.713Z,2.83
2019-05-03T10:42:39.830Z,2.47
2019-05-03T10:45:11.262Z,3.73
2019-05-03T10:47:42.300Z,2.37
2019-05-03T10:50:15.581Z,1.47
2019-05-03T10:52:51.057Z,2.13
2019-05-03T10:55:21.286Z,1.40
2019-05-03T10:57:57.233Z,2.10
2019-05-03T11:00:50.239Z,2.13
2019-05-03T11:03:02.725Z,1.47
2019-05-03T11:05:34.832Z,1.60
2019-05-03T11:08:06.029Z,1.10
2019-05-03T11:10:37.167Z,1.10
2019-05-03T11:13:08.376Z,0.63
2019-05-03T11:15:39.322Z,1.13
2019-05-03T11:18:10.734Z,1.50
2019-05-03T11:20:41.948Z,1.13
2019-05-03T11:23:14.661Z,1.63
2019-05-03T11:25:45.769Z,1.27
2019-05-03T11:28:21.607Z,2.40
2019-05-03T11:30:57.796Z,1.83
2019-05-03T11:33:31.966Z,1.50
2019-05-03T11:36:07.952Z,1.17
2019-05-03T11:38:40.543Z,2.13
2019-05-03T11:41:12.190Z,1.47
2019-05-03T11:43:44.367Z,1.83
2019-05-03T11:46:16.033Z,1.40
2019-05-03T11:48:47.093Z,1.70
2019-05-03T11:51:18.485Z,1.93
2019-05-03T11:53:49.451Z,1.33
2019-05-03T11:56:20.653Z,1.50
2019-05-03T11:58:51.639Z,1.40
2019-05-03T12:01:25.665Z,1.50
2019-05-03T12:03:57.045Z,2.67
2019-05-03T12:06:28.324Z,1.57
2019-05-03T12:08:59.322Z,1.87
2019-05-03T12:11:31.098Z,1.60
2019-05-03T12:14:12.309Z,1.30
2019-05-03T12:19:29.993Z,2.73
2019-05-03T12:21:57.051Z,1.50
2019-05-03T12:24:29.026Z,3.50
2019-05-03T12:27:00.609Z,2.40
2019-05-03T12:29:31.755Z,2.30
2019-05-03T12:32:02.681Z,1.60
2019-05-03T12:34:35.266Z,2.00
2019-05-03T12:37:06.409Z,2.03
2019-05-03T12:39:37.773Z,1.53
2019-05-03T12:42:09.481Z,1.80
2019-05-03T12:44:40.740Z,2.13
2019-05-03T12:47:14.578Z,2.27
2019-05-03T12:49:45.236Z,1.83
2019-05-03T12:52:17.526Z,1.60
2019-05-03T12:54:48.933Z,1.77
2019-05-03T12:57:20.167Z,2.27
2019-05-03T12:59:55.926Z,2.70
2019-05-03T13:02:37.738Z,2.77
2019-05-03T13:05:08.817Z,3.50
2019-05-03T13:07:45.496Z,3.80
2019-05-03T13:10:22.172Z,3.00
2019-05-03T13:12:53.136Z,3.40
2019-05-03T13:15:24.477Z,3.60
2019-05-03T13:17:55.468Z,3.43
2019-05-03T13:20:26.514Z,5.50
2019-05-03T13:22:57.608Z,4.57
2019-05-03T13:25:28.566Z,9.33
2019-05-03T13:27:59.785Z,4.13
2019-05-03T13:30:30.916Z,4.43
2019-05-03T13:33:01.058Z,4.67
2019-05-03T13:35:32.194Z,4.67
2019-05-03T13:38:03.154Z,4.17
2019-05-03T13:40:35.916Z,4.63
2019-05-03T13:43:07.103Z,5.07
2019-05-03T13:45:38.698Z,4.20
2019-05-03T13:48:09.925Z,5.70
2019-05-03T13:50:41.118Z,4.80
2019-05-03T13:53:12.114Z,4.20
2019-05-03T13:55:44.526Z,4.47
2019-05-03T13:58:16.533Z,3.30
2019-05-03T14:00:47.862Z,3.90
2019-05-03T14:03:18.950Z,4.43
2019-05-03T14:05:48.984Z,4.40
2019-05-03T14:08:20.444Z,4.67
2019-05-03T14:10:51.400Z,5.23
2019-05-03T14:13:22.616Z,4.47
2019-05-03T14:15:54.792Z,4.97
2019-05-03T14:18:26.153Z,5.10
2019-05-03T14:20:58.784Z,6.23
2019-05-03T14:23:29.953Z,4.30
2019-05-03T14:26:01.022Z,5.00
2019-05-03T14:28:32.238Z,4.87
2019-05-03T14:31:05.137Z,4.77
2019-05-03T14:33:37.248Z,4.40
2019-05-03T14:36:08.493Z,5.00
2019-05-03T14:38:38.929Z,4.00
2019-05-03T14:41:10.860Z,5.43
2019-05-03T14:44:04.876Z,4.57
2019-05-03T14:46:36.489Z,5.10
2019-05-03T14:49:07.562Z,6.73
2019-05-03T14:51:38.988Z,4.13
2019-05-03T14:54:10.414Z,3.83
2019-05-03T14:56:45.352Z,5.70
2019-05-03T14:59:34.558Z,4.27
2019-05-03T15:02:15.425Z,5.13
2019-05-03T15:04:46.212Z,4.03
2019-05-03T15:07:17.562Z,4.07
2019-05-03T15:09:48.478Z,4.57
2019-05-03T15:12:19.753Z,5.73
2019-05-03T15:14:50.735Z,3.63
2019-05-03T15:17:21.878Z,4.10
2019-05-03T15:19:54.723Z,3.90
2019-05-03T15:22:26.289Z,3.73
2019-05-03T15:24:57.373Z,4.63
2019-05-03T15:27:29.539Z,4.17
2019-05-03T15:30:01.344Z,3.53
2019-05-03T15:32:35.237Z,4.67
2019-05-03T15:35:08.603Z,4.77
2019-05-03T15:37:39.505Z,3.93
2019-05-03T15:40:11.234Z,4.00
2019-05-03T15:42:45.118Z,3.63
2019-05-03T15:45:35.089Z,4.03
2019-05-03T15:48:07.986Z,4.47
2019-05-03T15:50:39.219Z,8.53
2019-05-03T15:53:15.262Z,3.43
2019-05-03T15:55:46.590Z,4.03
2019-05-03T15:58:17.569Z,4.63
2019-05-03T16:00:49.755Z,4.43
2019-05-03T16:03:21.383Z,4.20
2019-05-03T16:05:55.638Z,4.17
2019-05-03T16:08:27.385Z,4.90
2019-05-03T16:10:58.737Z,5.83
2019-05-03T16:13:32.104Z,5.10
2019-05-03T16:16:04.388Z,6.90
2019-05-03T16:18:37.455Z,4.10
2019-05-03T16:21:08.659Z,3.70
2019-05-03T16:23:40.165Z,4.07
2019-05-03T16:26:11.118Z,5.87
2019-05-03T16:28:46.340Z,4.03
2019-05-03T16:31:19.359Z,3.80
2019-05-03T16:33:50.821Z,3.70
2019-05-03T16:36:22.561Z,4.20
2019-05-03T16:38:55.376Z,5.50
2019-05-03T16:41:26.898Z,3.70
2019-05-03T16:44:03.446Z,3.80
2019-05-03T16:46:35.143Z,5.27
2019-05-03T16:49:06.534Z,3.93
2019-05-03T16:51:38.936Z,4.90
2019-05-03T16:54:10.749Z,5.10
2019-05-03T16:56:42.146Z,4.70
2019-05-03T16:59:14.781Z,4.47
2019-05-03T17:01:46.856Z,5.50
2019-05-03T17:04:35.757Z,4.90
2019-05-03T17:07:16.252Z,4.93
2019-05-03T17:09:48.786Z,5.80
2019-05-03T17:12:34.834Z,4.77
2019-05-03T17:15:10.275Z,5.63
2019-05-03T17:17:45.108Z,4.10
2019-05-03T17:20:19.184Z,4.87
2019-05-03T17:22:50.528Z,4.60
2019-05-03T17:25:22.013Z,4.60
2019-05-03T17:27:57.367Z,5.27
2019-05-03T17:30:34.037Z,4.77
2019-05-03T17:33:04.503Z,6.90
2019-05-03T17:35:36.557Z,4.93
2019-05-03T17:38:07.193Z,5.73
2019-05-03T17:40:44.254Z,4.77
2019-05-03T17:43:17.460Z,5.57
2019-05-03T17:45:56.927Z,4.97
2019-05-03T17:48:28.300Z,5.03
2019-05-03T17:50:59.828Z,4.73
2019-05-03T17:53:37.478Z,4.67
2019-05-03T17:56:11.241Z,4.63
2019-05-03T17:58:55.190Z,4.10
2019-05-03T18:01:30.907Z,6.37
2019-05-03T18:04:24.827Z,6.17
2019-05-03T18:07:01.341Z,8.80
2019-05-03T18:09:35.026Z,6.73
2019-05-03T18:12:07.572Z,4.53
2019-05-03T18:14:39.072Z,5.23
2019-05-03T18:17:14.818Z,4.73
2019-05-03T18:19:47.852Z,4.97
2019-05-03T18:22:20.479Z,4.07
2019-05-03T18:24:51.700Z,5.67
2019-05-03T18:27:25.085Z,5.87
2019-05-03T18:29:59.586Z,6.43
2019-05-03T18:32:30.092Z,4.53
2019-05-03T18:35:06.195Z,5.27
2019-05-03T18:37:42.207Z,5.63
2019-05-03T18:40:19.210Z,5.87
2019-05-03T18:43:07.156Z,5.03
2019-05-03T18:46:04.969Z,5.83
2019-05-03T18:48:44.576Z,6.33
2019-05-03T18:51:26.285Z,7.53
2019-05-03T18:54:08.109Z,5.67
2019-05-03T18:56:39.925Z,6.97
2019-05-03T19:02:45.061Z,5.20
2019-05-03T19:05:24.350Z,6.80
2019-05-03T19:08:06.538Z,4.33
2019-05-03T19:10:44.610Z,5.50
2019-05-03T19:13:17.401Z,5.57
2019-05-03T19:15:48.864Z,5.30
2019-05-03T19:18:21.872Z,6.67
2019-05-03T19:20:54.980Z,8.83
2019-05-03T19:23:25.924Z,9.23
2019-05-03T19:25:56.899Z,6.93
2019-05-03T19:28:28.161Z,9.63
2019-05-03T19:30:59.255Z,6.37
2019-05-03T19:33:30.503Z,6.53
2019-05-03T19:36:01.512Z,8.03
2019-05-03T19:38:32.738Z,10.77
2019-05-03T19:41:03.883Z,8.47
2019-05-03T19:43:35.570Z,10.23
2019-05-03T19:46:07.406Z,7.63
2019-05-03T19:48:39.083Z,7.20
2019-05-03T19:51:10.314Z,8.70
2019-05-03T19:53:45.856Z,10.03
2019-05-03T19:56:17.497Z,6.20
2019-05-03T19:58:48.843Z,7.50
2019-05-03T20:01:28.072Z,6.83
2019-05-03T20:04:00.765Z,6.43
2019-05-03T20:06:36.325Z,5.90
2019-05-03T20:09:12.747Z,6.73
2019-05-03T20:11:45.961Z,5.90
2019-05-03T20:14:16.827Z,6.83
2019-05-03T20:16:48.065Z,7.80
2019-05-03T20:19:25.713Z,8.10
2019-05-03T20:22:05.180Z,6.83
2019-05-03T20:24:40.461Z,5.80
2019-05-03T20:27:19.619Z,6.67
2019-05-03T20:30:02.187Z,9.77
2019-05-03T20:32:39.999Z,6.80
2019-05-03T20:35:18.454Z,5.90
2019-05-03T20:37:44.862Z,7.50
2019-05-03T20:40:21.908Z,8.37
2019-05-03T20:43:05.023Z,7.37
2019-05-03T20:45:38.557Z,7.00
2019-05-03T20:48:19.605Z,6.87
2019-05-03T20:50:55.277Z,7.30
2019-05-03T20:53:35.973Z,8.27
2019-05-03T20:56:12.414Z,10.13
2019-05-03T20:58:44.686Z,11.57
2019-05-03T21:01:16.025Z,6.60
2019-05-03T21:03:47.044Z,7.63
2019-05-03T21:06:18.294Z,8.63
2019-05-03T21:08:53.140Z,10.13
2019-05-03T21:11:22.401Z,7.10
2019-05-03T21:13:53.271Z,8.37
2019-05-03T21:16:34.431Z,6.73
2019-05-03T21:19:09.474Z,29.40
2019-05-03T21:21:48.147Z,10.73
2019-05-03T21:24:20.758Z,10.83
2019-05-03T21:26:50.781Z,8.07
2019-05-03T21:29:22.327Z,8.63
2019-05-03T21:31:55.132Z,6.43
2019-05-03T21:34:26.796Z,7.63
2019-05-03T21:36:58.144Z,6.60
2019-05-03T21:39:29.288Z,7.73
2019-05-03T21:42:00.426Z,8.57
2019-05-03T21:44:40.706Z,7.80
2019-05-03T21:47:15.180Z,7.13
2019-05-03T21:49:48.235Z,10.20
2019-05-03T21:52:19.152Z,21.53
2019-05-03T21:54:50.532Z,8.90
2019-05-03T21:57:21.626Z,11.57
2019-05-03T21:59:52.677Z,7.10
2019-05-03T22:02:24.670Z,8.23
2019-05-03T22:04:54.931Z,8.03
2019-05-03T22:07:26.828Z,7.07
2019-05-03T22:09:58.020Z,7.87
2019-05-03T22:12:29.535Z,7.63
2019-05-03T22:15:10.934Z,8.70
2019-05-03T22:17:52.971Z,10.43
2019-05-03T22:20:28.432Z,9.90
2019-05-03T22:23:01.406Z,9.57
2019-05-03T22:25:34.894Z,13.80
2019-05-03T22:28:07.167Z,7.03
2019-05-03T22:30:38.330Z,7.17
2019-05-03T22:33:09.571Z,10.87
2019-05-03T22:35:40.569Z,7.33
2019-05-03T22:38:11.827Z,8.77
2019-05-03T22:40:44.278Z,8.73
2019-05-03T22:43:15.792Z,8.10
2019-05-03T22:45:46.818Z,6.77
2019-05-03T22:48:16.982Z,8.70
2019-05-03T22:50:48.138Z,6.80
2019-05-03T22:53:19.016Z,9.70
2019-05-03T22:55:50.085Z,15.17
2019-05-03T22:58:21.052Z,9.63
2019-05-03T23:00:52.145Z,8.40
2019-05-03T23:03:24.878Z,17.07
2019-05-03T23:05:58.573Z,9.43
2019-05-03T23:08:29.478Z,7.50
2019-05-03T23:11:00.652Z,8.20
2019-05-03T23:13:31.645Z,7.50
2019-05-03T23:16:05.046Z,22.87
2019-05-03T23:18:35.665Z,8.43
2019-05-03T23:21:07.644Z,8.40
2019-05-03T23:23:48.820Z,8.40
2019-05-03T23:26:19.137Z,7.77
2019-05-03T23:28:50.657Z,7.60
2019-05-03T23:31:21.653Z,7.67
2019-05-03T23:33:54.475Z,13.83
2019-05-03T23:36:33.212Z,7.40
2019-05-03T23:38:58.415Z,8.70
2019-05-03T23:41:29.361Z,6.87
2019-05-03T23:44:00.487Z,7.53
2019-05-03T23:46:34.803Z,8.07
2019-05-03T23:49:06.081Z,8.20
2019-05-03T23:51:44.525Z,8.23
2019-05-03T23:54:15.743Z,12.47
2019-05-03T23:56:46.823Z,7.13
2019-05-03T23:59:17.080Z,6.60
